5HADE KMSO-KWYS
Flight info
| Callsign | 5HADE |
|---|---|
| Flight time | 0h 37m |
| Altitude | 39000 |
| Route | GRZLY4 MSO CPN HIA RATLL |
| Aircraft | HDJT/L-SABDGRWY/H |
Departure
| Time | 2026-04-17 14:12 |
|---|---|
| Airport | Missoula Montana Airport (KMSO) |
Arrival
| Time | 2026-04-17 14:49 |
|---|---|
| Airport | Yellowstone Airport (KWYS) |
| Time | Latitude | Longitude | Altitude | Speed | Heading |
|---|---|---|---|---|---|
| 2026-04-17 13:53 | 46.91464 | -114.08026 | 3201 ft | 0 kts | 89° |
| 2026-04-17 14:03 | 46.91466 | -114.07998 | 3201 ft | 4 kts | 68° |
| 2026-04-17 14:03 | 46.91507 | -114.07983 | 3201 ft | 9 kts | 358° |
| 2026-04-17 14:03 | 46.91532 | -114.08038 | 3201 ft | 9 kts | 269° |
| 2026-04-17 14:04 | 46.91548 | -114.08138 | 3201 ft | 12 kts | 311° |
| 2026-04-17 14:04 | 46.91613 | -114.08240 | 3200 ft | 15 kts | 310° |
| 2026-04-17 14:04 | 46.91688 | -114.08369 | 3200 ft | 18 kts | 311° |
| 2026-04-17 14:04 | 46.91773 | -114.08521 | 3200 ft | 20 kts | 308° |
| 2026-04-17 14:05 | 46.91860 | -114.08661 | 3199 ft | 18 kts | 311° |
| 2026-04-17 14:05 | 46.91945 | -114.08810 | 3199 ft | 20 kts | 309° |
| 2026-04-17 14:05 | 46.92033 | -114.08960 | 3198 ft | 17 kts | 311° |
| 2026-04-17 14:05 | 46.92098 | -114.09074 | 3198 ft | 10 kts | 296° |
| 2026-04-17 14:06 | 46.92076 | -114.09130 | 3198 ft | 7 kts | 213° |
| 2026-04-17 14:06 | 46.92030 | -114.09177 | 3198 ft | 9 kts | 217° |
| 2026-04-17 14:06 | 46.91974 | -114.09236 | 3198 ft | 11 kts | 214° |
| 2026-04-17 14:06 | 46.91925 | -114.09308 | 3198 ft | 4 kts | 265° |
| 2026-04-17 14:07 | 46.91941 | -114.09353 | 3198 ft | 6 kts | 310° |
| 2026-04-17 14:07 | 46.91972 | -114.09407 | 3198 ft | 8 kts | 310° |
| 2026-04-17 14:07 | 46.92011 | -114.09477 | 3197 ft | 10 kts | 309° |
| 2026-04-17 14:07 | 46.92060 | -114.09561 | 3197 ft | 12 kts | 310° |
| 2026-04-17 14:08 | 46.92115 | -114.09659 | 3197 ft | 13 kts | 309° |
| 2026-04-17 14:08 | 46.92180 | -114.09767 | 3197 ft | 15 kts | 311° |
| 2026-04-17 14:08 | 46.92251 | -114.09888 | 3197 ft | 16 kts | 310° |
| 2026-04-17 14:08 | 46.92329 | -114.10023 | 3197 ft | 18 kts | 310° |
| 2026-04-17 14:09 | 46.92415 | -114.10168 | 3197 ft | 20 kts | 310° |
| 2026-04-17 14:09 | 46.92502 | -114.10316 | 3197 ft | 17 kts | 309° |
| 2026-04-17 14:09 | 46.92505 | -114.10430 | 3196 ft | 13 kts | 221° |
| 2026-04-17 14:09 | 46.92486 | -114.10453 | 3196 ft | 0 kts | 219° |
| 2026-04-17 14:10 | 46.92477 | -114.10464 | 3196 ft | 5 kts | 219° |
| 2026-04-17 14:11 | 46.92417 | -114.10504 | 3194 ft | 14 kts | 171° |
| 2026-04-17 14:11 | 46.92359 | -114.10438 | 3195 ft | 0 kts | 130° |
| 2026-04-17 14:11 | 46.92358 | -114.10437 | 3195 ft | 4 kts | 130° |
| 2026-04-17 14:11 | 46.92121 | -114.10032 | 3197 ft | 98 kts | 130° |
| 2026-04-17 14:12 | 46.91544 | -114.09066 | 3458 ft | 139 kts | 131° |
| 2026-04-17 14:12 | 46.90827 | -114.07991 | 4028 ft | 155 kts | 137° |
| 2026-04-17 14:12 | 46.89972 | -114.06825 | 4447 ft | 179 kts | 139° |
| 2026-04-17 14:13 | 46.87664 | -114.06362 | 6278 ft | 176 kts | 202° |
| 2026-04-17 14:13 | 46.86452 | -114.06950 | 6885 ft | 197 kts | 200° |
| 2026-04-17 14:13 | 46.84983 | -114.07151 | 7305 ft | 227 kts | 179° |
| 2026-04-17 14:13 | 46.83393 | -114.06850 | 8139 ft | 233 kts | 176° |
| 2026-04-17 14:14 | 46.81787 | -114.06523 | 8954 ft | 240 kts | 176° |
| 2026-04-17 14:14 | 46.80113 | -114.06180 | 9821 ft | 246 kts | 175° |
| 2026-04-17 14:14 | 46.78392 | -114.05827 | 10625 ft | 253 kts | 175° |
| 2026-04-17 14:14 | 46.76639 | -114.05467 | 11459 ft | 256 kts | 175° |
| 2026-04-17 14:15 | 46.74880 | -114.04923 | 12312 ft | 263 kts | 158° |
| 2026-04-17 14:15 | 46.73349 | -114.03378 | 13157 ft | 267 kts | 137° |
| 2026-04-17 14:15 | 46.72027 | -114.01508 | 14027 ft | 271 kts | 133° |
| 2026-04-17 14:15 | 46.70740 | -113.99479 | 14820 ft | 275 kts | 130° |
| 2026-04-17 14:16 | 46.69473 | -113.97366 | 15626 ft | 279 kts | 129° |
| 2026-04-17 14:16 | 46.68274 | -113.95131 | 16436 ft | 283 kts | 124° |
| 2026-04-17 14:16 | 46.67881 | -113.94342 | 16697 ft | 284 kts | 124° |
| 2026-04-17 14:17 | 46.65304 | -113.89393 | 18414 ft | 294 kts | 127° |
| 2026-04-17 14:17 | 46.61904 | -113.83005 | 20289 ft | 309 kts | 126° |
| 2026-04-17 14:17 | 46.60568 | -113.80487 | 20983 ft | 315 kts | 126° |
| 2026-04-17 14:18 | 46.59213 | -113.77954 | 21661 ft | 320 kts | 125° |
| 2026-04-17 14:18 | 46.57857 | -113.75409 | 22342 ft | 325 kts | 125° |
| 2026-04-17 14:18 | 46.56459 | -113.72784 | 23037 ft | 331 kts | 125° |
| 2026-04-17 14:18 | 46.55035 | -113.70117 | 23734 ft | 337 kts | 124° |
| 2026-04-17 14:19 | 46.53584 | -113.67404 | 24327 ft | 342 kts | 125° |
| 2026-04-17 14:19 | 46.52595 | -113.65557 | 24749 ft | 345 kts | 125° |
| 2026-04-17 14:19 | 46.50625 | -113.61878 | 25477 ft | 351 kts | 125° |
| 2026-04-17 14:19 | 46.49613 | -113.59988 | 25901 ft | 353 kts | 126° |
| 2026-04-17 14:20 | 46.48108 | -113.57186 | 26542 ft | 353 kts | 125° |
| 2026-04-17 14:20 | 46.46587 | -113.54355 | 27046 ft | 358 kts | 125° |
| 2026-04-17 14:20 | 46.45049 | -113.51491 | 27547 ft | 362 kts | 125° |
| 2026-04-17 14:20 | 46.43494 | -113.48600 | 28042 ft | 365 kts | 125° |
| 2026-04-17 14:21 | 46.41921 | -113.45682 | 28539 ft | 369 kts | 125° |
| 2026-04-17 14:21 | 46.40330 | -113.42733 | 28997 ft | 373 kts | 125° |
| 2026-04-17 14:21 | 46.38727 | -113.39763 | 29451 ft | 377 kts | 125° |
| 2026-04-17 14:21 | 46.37106 | -113.36762 | 29886 ft | 380 kts | 125° |
| 2026-04-17 14:22 | 46.35464 | -113.33728 | 30305 ft | 384 kts | 125° |
| 2026-04-17 14:22 | 46.33815 | -113.30683 | 30669 ft | 386 kts | 125° |
| 2026-04-17 14:22 | 46.32180 | -113.27670 | 31118 ft | 385 kts | 126° |
| 2026-04-17 14:22 | 46.30529 | -113.24630 | 31597 ft | 383 kts | 126° |
| 2026-04-17 14:23 | 46.28884 | -113.21602 | 32069 ft | 382 kts | 126° |
| 2026-04-17 14:23 | 46.27243 | -113.18583 | 32502 ft | 381 kts | 126° |
| 2026-04-17 14:23 | 46.25605 | -113.15576 | 32942 ft | 380 kts | 126° |
| 2026-04-17 14:23 | 46.23973 | -113.12581 | 33382 ft | 379 kts | 126° |
| 2026-04-17 14:24 | 46.22345 | -113.09598 | 33812 ft | 378 kts | 126° |
| 2026-04-17 14:24 | 46.20724 | -113.06631 | 34223 ft | 377 kts | 126° |
| 2026-04-17 14:24 | 46.19103 | -113.03667 | 34571 ft | 375 kts | 126° |
| 2026-04-17 14:24 | 46.17482 | -113.00706 | 34885 ft | 375 kts | 127° |
| 2026-04-17 14:25 | 46.15868 | -112.97762 | 35213 ft | 374 kts | 127° |
| 2026-04-17 14:25 | 46.14253 | -112.94818 | 35529 ft | 374 kts | 127° |
| 2026-04-17 14:25 | 46.12640 | -112.91880 | 35848 ft | 373 kts | 127° |
| 2026-04-17 14:25 | 46.11029 | -112.88949 | 36170 ft | 373 kts | 127° |
| 2026-04-17 14:26 | 46.09419 | -112.86026 | 36477 ft | 372 kts | 127° |
| 2026-04-17 14:26 | 46.07815 | -112.83115 | 36811 ft | 370 kts | 127° |
| 2026-04-17 14:26 | 46.06214 | -112.80211 | 37119 ft | 370 kts | 127° |
| 2026-04-17 14:26 | 46.04617 | -112.77318 | 37485 ft | 368 kts | 127° |
| 2026-04-17 14:27 | 46.03138 | -112.74338 | 37828 ft | 364 kts | 117° |
| 2026-04-17 14:27 | 46.02065 | -112.71052 | 38104 ft | 363 kts | 109° |
| 2026-04-17 14:27 | 46.01150 | -112.67725 | 38376 ft | 362 kts | 109° |
| 2026-04-17 14:27 | 46.00184 | -112.64324 | 38673 ft | 362 kts | 111° |
| 2026-04-17 14:28 | 45.99187 | -112.60995 | 38942 ft | 362 kts | 111° |
| 2026-04-17 14:28 | 45.98199 | -112.57673 | 39168 ft | 362 kts | 111° |
| 2026-04-17 14:28 | 45.96236 | -112.50925 | 39213 ft | 376 kts | 111° |
| 2026-04-17 14:29 | 45.94158 | -112.43890 | 39133 ft | 389 kts | 111° |
| 2026-04-17 14:29 | 45.92020 | -112.36636 | 39137 ft | 399 kts | 111° |
| 2026-04-17 14:30 | 45.89822 | -112.29217 | 39149 ft | 408 kts | 111° |
| 2026-04-17 14:30 | 45.87581 | -112.21668 | 39165 ft | 414 kts | 111° |
| 2026-04-17 14:31 | 45.85104 | -112.14155 | 39191 ft | 419 kts | 119° |
| 2026-04-17 14:31 | 45.82160 | -112.06888 | 39198 ft | 423 kts | 119° |
| 2026-04-17 14:32 | 45.80699 | -112.03189 | 38988 ft | 431 kts | 118° |
| 2026-04-17 14:32 | 45.79192 | -111.99358 | 38207 ft | 451 kts | 118° |
| 2026-04-17 14:32 | 45.77606 | -111.95388 | 37414 ft | 467 kts | 119° |
| 2026-04-17 14:32 | 45.75986 | -111.91371 | 36668 ft | 460 kts | 118° |
| 2026-04-17 14:33 | 45.74426 | -111.87477 | 36131 ft | 445 kts | 118° |
| 2026-04-17 14:33 | 45.72907 | -111.83669 | 35406 ft | 437 kts | 118° |
| 2026-04-17 14:33 | 45.71408 | -111.79930 | 34705 ft | 430 kts | 118° |
| 2026-04-17 14:33 | 45.69928 | -111.76253 | 33984 ft | 423 kts | 117° |
| 2026-04-17 14:34 | 45.68468 | -111.72630 | 33173 ft | 418 kts | 117° |
| 2026-04-17 14:34 | 45.67028 | -111.69054 | 32391 ft | 412 kts | 117° |
| 2026-04-17 14:34 | 45.65604 | -111.65520 | 31635 ft | 408 kts | 117° |
| 2026-04-17 14:34 | 45.64192 | -111.62025 | 30900 ft | 404 kts | 117° |
| 2026-04-17 14:35 | 45.62792 | -111.58567 | 30197 ft | 400 kts | 117° |
| 2026-04-17 14:35 | 45.61406 | -111.55144 | 29326 ft | 396 kts | 117° |
| 2026-04-17 14:35 | 45.60035 | -111.51759 | 28483 ft | 392 kts | 117° |
| 2026-04-17 14:35 | 45.58677 | -111.48414 | 27662 ft | 387 kts | 117° |
| 2026-04-17 14:36 | 45.57327 | -111.45117 | 26884 ft | 382 kts | 120° |
| 2026-04-17 14:36 | 45.55890 | -111.41956 | 26247 ft | 374 kts | 121° |
| 2026-04-17 14:36 | 45.54481 | -111.38884 | 25780 ft | 368 kts | 121° |
| 2026-04-17 14:36 | 45.53098 | -111.35845 | 25304 ft | 363 kts | 122° |
| 2026-04-17 14:37 | 45.51512 | -111.33075 | 24845 ft | 359 kts | 136° |
| 2026-04-17 14:37 | 45.49570 | -111.30876 | 24379 ft | 355 kts | 148° |
| 2026-04-17 14:37 | 45.47458 | -111.29095 | 23910 ft | 351 kts | 150° |
| 2026-04-17 14:37 | 45.45367 | -111.27332 | 23399 ft | 347 kts | 150° |
| 2026-04-17 14:38 | 45.43313 | -111.25581 | 22946 ft | 341 kts | 150° |
| 2026-04-17 14:38 | 45.41289 | -111.23863 | 22496 ft | 336 kts | 150° |
| 2026-04-17 14:38 | 45.39296 | -111.22189 | 22077 ft | 331 kts | 150° |
| 2026-04-17 14:38 | 45.37323 | -111.20520 | 21643 ft | 328 kts | 150° |
| 2026-04-17 14:39 | 45.35368 | -111.18868 | 21213 ft | 325 kts | 150° |
| 2026-04-17 14:39 | 45.33430 | -111.17233 | 20795 ft | 322 kts | 151° |
| 2026-04-17 14:39 | 45.31503 | -111.15616 | 20375 ft | 321 kts | 151° |
| 2026-04-17 14:39 | 45.29583 | -111.13998 | 19960 ft | 320 kts | 150° |
| 2026-04-17 14:40 | 45.27670 | -111.12389 | 19535 ft | 319 kts | 151° |
| 2026-04-17 14:40 | 45.25758 | -111.10790 | 19117 ft | 319 kts | 151° |
| 2026-04-17 14:40 | 45.23854 | -111.09175 | 18696 ft | 318 kts | 151° |
| 2026-04-17 14:40 | 45.21950 | -111.07582 | 18244 ft | 317 kts | 151° |
| 2026-04-17 14:41 | 45.20084 | -111.06027 | 17824 ft | 314 kts | 151° |
| 2026-04-17 14:41 | 45.18212 | -111.04455 | 17417 ft | 311 kts | 150° |
| 2026-04-17 14:41 | 45.16356 | -111.02897 | 17012 ft | 309 kts | 150° |
| 2026-04-17 14:41 | 45.14522 | -111.01370 | 16617 ft | 306 kts | 150° |
| 2026-04-17 14:42 | 45.12687 | -110.99837 | 16215 ft | 305 kts | 150° |
| 2026-04-17 14:42 | 45.10863 | -110.98305 | 15812 ft | 305 kts | 149° |
| 2026-04-17 14:42 | 45.09048 | -110.96779 | 15413 ft | 303 kts | 150° |
| 2026-04-17 14:42 | 45.07222 | -110.95286 | 15002 ft | 302 kts | 150° |
| 2026-04-17 14:43 | 45.05423 | -110.93791 | 14618 ft | 300 kts | 149° |
| 2026-04-17 14:43 | 45.03624 | -110.92324 | 14228 ft | 298 kts | 155° |
| 2026-04-17 14:43 | 45.01650 | -110.91434 | 13678 ft | 299 kts | 172° |
| 2026-04-17 14:43 | 44.99597 | -110.91287 | 13259 ft | 293 kts | 187° |
| 2026-04-17 14:44 | 44.97621 | -110.91854 | 12862 ft | 287 kts | 202° |
| 2026-04-17 14:44 | 44.95824 | -110.93001 | 12478 ft | 281 kts | 210° |
| 2026-04-17 14:44 | 44.94087 | -110.94228 | 12088 ft | 277 kts | 209° |
| 2026-04-17 14:44 | 44.92380 | -110.95407 | 11730 ft | 270 kts | 209° |
| 2026-04-17 14:45 | 44.90722 | -110.96552 | 11582 ft | 258 kts | 209° |
| 2026-04-17 14:45 | 44.89161 | -110.97647 | 11570 ft | 244 kts | 210° |
| 2026-04-17 14:45 | 44.87679 | -110.98678 | 11563 ft | 232 kts | 210° |
| 2026-04-17 14:45 | 44.86257 | -110.99676 | 11425 ft | 228 kts | 210° |
| 2026-04-17 14:46 | 44.84833 | -111.00693 | 11091 ft | 232 kts | 211° |
| 2026-04-17 14:46 | 44.83395 | -111.01777 | 10656 ft | 236 kts | 211° |
| 2026-04-17 14:46 | 44.81943 | -111.02825 | 10219 ft | 235 kts | 210° |
| 2026-04-17 14:46 | 44.80487 | -111.03855 | 9789 ft | 231 kts | 210° |
| 2026-04-17 14:47 | 44.79108 | -111.04791 | 9531 ft | 201 kts | 207° |
| 2026-04-17 14:47 | 44.77867 | -111.05562 | 9177 ft | 194 kts | 207° |
| 2026-04-17 14:47 | 44.76608 | -111.06378 | 8538 ft | 206 kts | 208° |
| 2026-04-17 14:47 | 44.75334 | -111.07330 | 8096 ft | 205 kts | 209° |
| 2026-04-17 14:48 | 44.74109 | -111.08205 | 7790 ft | 189 kts | 208° |
| 2026-04-17 14:48 | 44.72986 | -111.08981 | 7396 ft | 167 kts | 206° |
| 2026-04-17 14:48 | 44.72001 | -111.09642 | 7109 ft | 146 kts | 205° |
| 2026-04-17 14:48 | 44.71137 | -111.10214 | 6926 ft | 129 kts | 205° |
| 2026-04-17 14:49 | 44.70368 | -111.10726 | 6779 ft | 116 kts | 205° |
| 2026-04-17 14:49 | 44.69677 | -111.11188 | 6660 ft | 104 kts | 206° |
| 2026-04-17 14:49 | 44.69089 | -111.11602 | 6633 ft | 81 kts | 205° |
| 2026-04-17 14:49 | 44.68869 | -111.11750 | 6636 ft | 21 kts | 204° |
| 2026-04-17 14:50 | 44.68727 | -111.11845 | 6637 ft | 24 kts | 206° |
| 2026-04-17 14:50 | 44.68575 | -111.11951 | 6635 ft | 25 kts | 206° |
| 2026-04-17 14:50 | 44.68495 | -111.11977 | 6634 ft | 9 kts | 145° |
| 2026-04-17 14:50 | 44.68460 | -111.11904 | 6635 ft | 9 kts | 104° |
| 2026-04-17 14:51 | 44.68483 | -111.11843 | 6636 ft | 6 kts | 28° |
| 2026-04-17 14:51 | 44.68523 | -111.11814 | 6636 ft | 7 kts | 27° |
| 2026-04-17 14:51 | 44.68575 | -111.11778 | 6637 ft | 10 kts | 26° |
| 2026-04-17 14:51 | 44.68649 | -111.11726 | 6637 ft | 12 kts | 26° |
| 2026-04-17 14:52 | 44.68687 | -111.11666 | 6637 ft | 7 kts | 101° |
| 2026-04-17 14:52 | 44.68680 | -111.11595 | 6638 ft | 6 kts | 54° |
| 2026-04-17 14:52 | 44.68717 | -111.11555 | 6636 ft | 6 kts | 58° |
| 2026-04-17 14:52 | 44.68710 | -111.11513 | 6636 ft | 2 kts | 156° |
| 2026-04-17 14:53 | 44.68697 | -111.11515 | 6635 ft | 2 kts | 207° |
| 2026-04-17 14:53 | 44.68693 | -111.11518 | 6638 ft | 0 kts | 208° |